Airfield :
LOGIN :

Register | Disclaimer

   EN    FR    IT 

 










Legend :    VFR   Marginal VFR   IFR   Intensive IFR   Very Intensive IFR
Visi :
Ceiling :
>= 8 km
>= 3000ft
5 to 8 km
1000 to 3000 ft
1500m to 5 km
500 to 1000 ft
800 to 1500m
200 to 500 ft
< 800m
< 200 ft
Symbols :   Thunderstorms  Fog  Heavy snow  Heavy precipitations  Wind > 20 kt
SIGMETs :     Misc.  Thunderstorms  Icing  Turbulence  Mountain Waves  Volcanic Ashes






- Airport Elevation : 80 ft
- IATA code : LPL


EGGP - Liverpool John Lennon

CURRENT METAR :
  • 200250Z AUTO 19012KT 9999 RA FEW026/// SCT031/// BKN037/// 11/10 Q0985 RERA

EXPIRED METARs :
  • 200220Z AUTO 20012KT 8000 RA SCT032/// SCT037/// 10/10 Q0985 RERA
  • 200150Z AUTO 20014KT 8000 RA SCT030/// BKN036/// BKN049/// 11/10 Q0985 RERA
  • 200120Z AUTO 20013KT 4600 +RA BKN032/// BKN041/// 11/10 Q0986
  • 200050Z AUTO 21015KT 9999 RA BKN032/// BKN037/// BKN047/// 11/10 Q0986 RERA
  • 200020Z AUTO 21015KT 6000 +RA SCT016/// SCT021/// BKN029/// 11/10 Q0986

TAF AMD TAF EGGP
Valid from the 20 at 00:00 until the 21 at 00:00 UTC


200025Z 2000/2024 20012KT 9999 SCT018 BKN030
TEMPO 2000/2003 21015G25KT
TEMPO 2000/2011 6000 RA BKN010
PROB40
TEMPO 2000/2011 3000 +RA BKN006
BECMG 2011/2014 32009KT
TEMPO 2011/2024 6000 RA BKN005
PROB40
TEMPO 2011/2021 3000 +DZRA BKN002
ATIS : +44 151 907 2000 (option 5 or ext 5150)
Met : +44 871 750 5150



MET'MAP, your aeronautical weather chart ! - Copyright ORBIFLY December 2007 - Disclaimer

ORBIFLY MET'MAP TEAM :

Programming & Development : Alexandra Zaïnal
Concept & original design : Baudouin d'Aumeries
Assistance for programming : Marc-Olivier Méhu
Technical & hardware support : Manuel Goepfert

Contact : metmap@orbifly.com




SOURCES & CREDITS :

   NOAA